»·PEaware :: UAL47 EDDF-KIAH

UAL47 :: EDDF-KIAH

FLIGHT INFORMATION

Flight Status: Arrived
Operator:
United Airlines
More flights by this operator :: More flights under this callsign
Pilot: Andrew J. (13363)
Aircraft: BOEING 777-200
(B772)
More flights by this aircraft type
Origin: EDDF Frankfurt/Main
Germany
Destination: KIAH G Bush Intercontinental/Houst
United States
More flights between these airports :: More routes between these airports
Route: MARU6N MARUN OBOKA UZ29 TINIK UZ291 BREDA SUPUR UL602 MIMVA L602 TLA GOMUP NATA DORYY SPOTE 5073N YSB ASP PMM RBS FAM LIT J180 SWB GESNR1
File this flight plan on PilotEdge
Remarks:
Altitude:
(Current/Filed)
34,000ft
Speed:
(Current/Filed)
475kts
Departed: 08-Mar-18 07:21 AM
Arrived: 08-Mar-18 10:05 PM
Distance/Time
Traveled:
4534nm/14:44
Distance/Time
To Go:
Arrived

Flight Plot

Page will automatically refresh every two minutes.

Flight plan parsing failed; only flown route is shown


Map Options




Map Legend


Flown Route
Filed Route
Departure Airport
Arrival Airport
Navaid (VOR, NDB)
Fix

Horizontal Profiles

Position Reports

Time Latitude Longitude Heading Altitude Ground
Speed
08-Mar-18 07:08 50.046390 8.566534 114 377ft 0kts
08-Mar-18 07:09 50.046390 8.566534 114 377ft 0kts
08-Mar-18 07:10 50.046406 8.566481 115 377ft 1kts
08-Mar-18 07:11 50.046767 8.565690 146 377ft 2kts
08-Mar-18 07:12 50.047203 8.565663 205 377ft 0kts
08-Mar-18 07:13 50.047203 8.565663 205 377ft 0kts
08-Mar-18 07:14 50.047203 8.565663 205 377ft 0kts
08-Mar-18 07:15 50.047203 8.565663 205 377ft 0kts
08-Mar-18 07:16 50.047201 8.565662 205 377ft 0kts
08-Mar-18 07:17 50.046580 8.565159 209 377ft 8kts
08-Mar-18 07:18 50.044871 8.562790 251 377ft 12kts
08-Mar-18 07:19 50.043973 8.560332 190 377ft 0kts
08-Mar-18 07:20 50.042710 8.560499 182 377ft 11kts
08-Mar-18 07:21 50.041238 8.561083 134 377ft 3kts
08-Mar-18 07:22 50.042100 8.566300 69 377ft 10kts
08-Mar-18 07:23 50.043328 8.571382 68 377ft 16kts
08-Mar-18 07:24 50.044753 8.577323 68 377ft 17kts
08-Mar-18 07:25 50.046351 8.584025 62 377ft 6kts
08-Mar-18 07:26 50.046475 8.584380 65 377ft 1kts
08-Mar-18 07:27 50.044826 8.585834 251 377ft 3kts
08-Mar-18 07:28 50.037432 8.555340 248 485ft 176kts
08-Mar-18 07:29 50.011172 8.493212 209 3596ft 178kts
08-Mar-18 07:30 49.956619 8.484548 201 5382ft 215kts
08-Mar-18 07:31 49.906645 8.417983 227 7726ft 246kts
08-Mar-18 07:32 49.875068 8.327631 280 10402ft 271kts
08-Mar-18 07:33 49.923441 8.219057 322 12097ft 355kts
08-Mar-18 07:34 50.027459 8.227754 14 14945ft 408kts
08-Mar-18 07:35 50.135461 8.294837 20 17802ft 429kts
08-Mar-18 07:36 50.245304 8.372910 19 20225ft 441kts
08-Mar-18 07:37 50.360285 8.444221 11 22796ft 449kts
08-Mar-18 07:38 50.481196 8.502284 356 25027ft 450kts
08-Mar-18 07:39 50.579387 8.418255 293 27229ft 402kts
08-Mar-18 07:40 50.610857 8.251406 282 29612ft 399kts
08-Mar-18 07:41 50.636361 8.080586 281 31430ft 404kts
08-Mar-18 07:42 50.662077 7.906756 281 33026ft 408kts
08-Mar-18 07:43 50.688483 7.731913 281 33585ft 411kts
08-Mar-18 07:44 50.713819 7.555939 281 33579ft 412kts
08-Mar-18 07:45 50.739120 7.379744 283 33578ft 413kts
08-Mar-18 07:46 50.785956 7.212328 294 33580ft 420kts
08-Mar-18 07:47 50.839246 7.047491 293 33580ft 420kts
08-Mar-18 07:48 50.891929 6.883557 293 33577ft 418kts
08-Mar-18 07:49 50.944323 6.719314 293 33575ft 418kts
08-Mar-18 07:50 50.996559 6.554706 293 33564ft 418kts
08-Mar-18 07:51 51.049986 6.389857 293 33556ft 420kts
08-Mar-18 07:52 51.125476 6.245389 311 33552ft 434kts
08-Mar-18 07:53 51.232976 6.150867 331 33550ft 458kts
08-Mar-18 07:54 51.355215 6.082465 334 33536ft 465kts
08-Mar-18 07:55 51.478166 6.016404 334 33527ft 468kts
08-Mar-18 07:56 51.601701 5.949301 334 33522ft 470kts
08-Mar-18 07:57 51.725920 5.881024 334 33518ft 472kts
08-Mar-18 07:58 51.845011 5.798396 322 33509ft 460kts
08-Mar-18 07:59 51.946283 5.675606 316 33498ft 454kts
08-Mar-18 08:00 52.042107 5.543238 311 33494ft 451kts
08-Mar-18 08:01 52.133169 5.401617 311 33477ft 454kts
08-Mar-18 08:02 52.229832 5.269537 318 33459ft 460kts
08-Mar-18 08:03 52.332741 5.144193 318 33442ft 460kts
08-Mar-18 08:04 52.445678 5.039208 333 33449ft 481kts
08-Mar-18 08:05 52.554935 4.927786 308 33422ft 456kts
08-Mar-18 08:06 52.628458 4.761192 300 33404ft 450kts
08-Mar-18 08:07 52.699078 4.590287 300 34605ft 450kts
08-Mar-18 08:08 52.767611 4.417172 296 35383ft 447kts
08-Mar-18 08:09 52.816862 4.231107 284 35426ft 442kts
08-Mar-18 08:10 52.866808 4.045379 296 35353ft 448kts
08-Mar-18 08:11 52.937909 3.875544 316 35346ft 460kts
08-Mar-18 08:12 53.047664 3.762316 326 35346ft 468kts
08-Mar-18 08:13 53.166101 3.667114 327 35338ft 470kts
08-Mar-18 08:14 53.262871 3.527177 310 35344ft 461kts
08-Mar-18 08:15 53.296668 3.335517 260 35352ft 447kts
08-Mar-18 08:16 53.274927 3.130131 260 35342ft 446kts
08-Mar-18 08:17 53.253610 2.926242 261 35339ft 445kts
08-Mar-18 08:18 53.231176 2.724031 260 35335ft 446kts
08-Mar-18 08:19 53.209815 2.519961 267 35367ft 444kts
08-Mar-18 08:20 53.227698 2.316449 281 35342ft 446kts
08-Mar-18 08:21 53.253471 2.113393 280 35346ft 447kts
08-Mar-18 08:22 53.279415 1.910442 281 35355ft 446kts
08-Mar-18 08:23 53.303341 1.707394 280 35366ft 446kts
08-Mar-18 08:24 53.327143 1.503820 281 35375ft 445kts
08-Mar-18 08:25 53.356107 1.303096 283 35380ft 444kts
08-Mar-18 08:26 53.384697 1.102277 282 35410ft 444kts
08-Mar-18 08:27 53.413341 0.902089 284 35412ft 443kts
08-Mar-18 08:28 53.442371 0.701710 282 35398ft 443kts
08-Mar-18 08:29 53.465081 0.534128 282 35383ft 443kts
08-Mar-18 08:30 53.519488 0.311622 304 35409ft 451kts
08-Mar-18 08:31 53.582462 0.171369 303 35407ft 451kts
08-Mar-18 08:32 53.667198 -0.030636 302 35401ft 449kts
08-Mar-18 08:33 53.739256 -0.153075 319 35402ft 447kts
08-Mar-18 08:34 53.843364 -0.269451 321 35403ft 449kts
08-Mar-18 08:35 53.946258 -0.388772 320 35403ft 449kts
08-Mar-18 08:36 54.067109 -0.529531 321 35402ft 459kts
08-Mar-18 08:37 54.155125 -0.633248 321 35395ft 462kts
08-Mar-18 08:38 54.261070 -0.757786 322 35402ft 461kts
08-Mar-18 08:39 54.383904 -0.903680 321 35402ft 461kts
08-Mar-18 08:40 54.471380 -1.008726 321 35393ft 461kts
08-Mar-18 08:41 54.576745 -1.135401 321 35400ft 461kts
08-Mar-18 08:42 54.681637 -1.262513 321 35399ft 462kts
08-Mar-18 08:43 54.786748 -1.390227 322 35393ft 463kts
08-Mar-18 08:44 54.892171 -1.517609 321 35381ft 463kts
08-Mar-18 08:45 54.997248 -1.647503 321 35374ft 465kts
08-Mar-18 08:46 55.077130 -1.816270 293 35373ft 455kts
08-Mar-18 08:47 55.129669 -2.018180 293 35367ft 456kts
08-Mar-18 08:48 55.185056 -2.217244 294 35358ft 456kts
08-Mar-18 08:49 55.241915 -2.415924 294 35354ft 457kts
08-Mar-18 08:50 55.297910 -2.616396 294 35356ft 457kts
08-Mar-18 08:51 55.353271 -2.816819 294 35360ft 456kts
08-Mar-18 08:52 55.408629 -3.016451 293 35374ft 456kts
08-Mar-18 08:53 55.463040 -3.218873 293 35372ft 456kts
08-Mar-18 08:54 55.516936 -3.421092 293 35378ft 456kts
08-Mar-18 08:55 55.569345 -3.624682 292 35380ft 456kts
08-Mar-18 08:56 55.621578 -3.830043 292 35381ft 457kts
08-Mar-18 08:57 55.674561 -4.034710 293 35383ft 458kts
08-Mar-18 08:58 55.727207 -4.240108 292 35381ft 458kts
08-Mar-18 08:59 55.779161 -4.446728 292 35376ft 457kts
08-Mar-18 09:00 55.829794 -4.650246 292 35376ft 455kts
08-Mar-18 09:01 55.880579 -4.856312 292 35369ft 454kts
08-Mar-18 09:02 55.931059 -5.063084 291 35362ft 453kts
08-Mar-18 09:03 55.980913 -5.269226 291 35356ft 453kts
08-Mar-18 09:04 56.030634 -5.476817 291 35343ft 457kts
08-Mar-18 09:05 56.080435 -5.686711 291 35334ft 456kts
08-Mar-18 09:06 56.129513 -5.895615 291 35335ft 455kts
08-Mar-18 09:07 56.178119 -6.104557 291 35332ft 454kts
08-Mar-18 09:08 56.226510 -6.314602 291 35323ft 455kts
08-Mar-18 09:09 56.274037 -6.522956 290 35310ft 456kts
08-Mar-18 09:10 56.321845 -6.734639 290 35297ft 457kts
08-Mar-18 09:11 56.369482 -6.947693 290 35289ft 457kts
08-Mar-18 09:12 56.416632 -7.160759 290 35290ft 457kts
08-Mar-18 09:13 56.463403 -7.374269 290 35294ft 457kts
08-Mar-18 09:14 56.509860 -7.588546 290 35298ft 456kts
08-Mar-18 09:15 56.555695 -7.802184 289 35297ft 455kts
08-Mar-18 09:16 56.601146 -8.016260 289 35301ft 455kts
08-Mar-18 09:17 56.645946 -8.229490 289 35305ft 455kts
08-Mar-18 09:18 56.690751 -8.445015 289 35309ft 456kts
08-Mar-18 09:19 56.735268 -8.661460 288 35347ft 457kts
08-Mar-18 09:20 56.779626 -8.879502 288 35348ft 458kts
08-Mar-18 09:21 56.823509 -9.097579 288 35349ft 459kts
08-Mar-18 09:22 56.867093 -9.316498 288 35352ft 459kts
08-Mar-18 09:23 56.911087 -9.536407 288 35356ft 459kts
08-Mar-18 09:24 56.953564 -9.756317 288 35351ft 459kts
08-Mar-18 09:25 56.995192 -9.974535 288 35354ft 459kts
08-Mar-18 09:26 57.046328 -10.190487 293 35357ft 460kts
08-Mar-18 09:27 57.099922 -10.404144 292 35359ft 461kts
08-Mar-18 09:28 57.152687 -10.619523 293 35362ft 461kts
08-Mar-18 09:29 57.206396 -10.833811 292 35365ft 461kts
08-Mar-18 09:30 57.258722 -11.049315 292 35368ft 460kts
08-Mar-18 09:31 57.310723 -11.266356 292 35372ft 461kts
08-Mar-18 09:32 57.362256 -11.483707 292 35375ft 461kts
08-Mar-18 09:33 57.412934 -11.699607 292 35379ft 463kts
08-Mar-18 09:34 57.464103 -11.919870 291 35383ft 464kts
08-Mar-18 09:35 57.514757 -12.140149 291 35386ft 464kts
08-Mar-18 09:36 57.564976 -12.360792 291 35390ft 464kts
08-Mar-18 09:37 57.615023 -12.583044 291 35404ft 463kts
08-Mar-18 09:38 57.664409 -12.804676 291 35407ft 463kts
08-Mar-18 09:39 57.713317 -13.026489 290 35411ft 462kts
08-Mar-18 09:40 57.761995 -13.249610 290 35415ft 462kts
08-Mar-18 09:41 57.810178 -13.472874 290 35419ft 463kts
08-Mar-18 09:42 57.857695 -13.695445 290 35424ft 464kts
08-Mar-18 09:43 57.905435 -13.921677 290 35428ft 465kts
08-Mar-18 09:44 57.952728 -14.148170 289 35432ft 465kts
08-Mar-18 09:45 57.999557 -14.374938 289 35437ft 464kts
08-Mar-18 09:46 58.046127 -14.603019 289 35626ft 466kts
08-Mar-18 09:47 58.092272 -14.831602 289 35644ft 465kts
08-Mar-18 09:48 58.138144 -15.061354 289 35651ft 466kts
08-Mar-18 09:49 58.183514 -15.291353 288 35663ft 466kts
08-Mar-18 09:50 58.228182 -15.520567 288 35671ft 465kts
08-Mar-18 09:51 58.272596 -15.750874 288 35677ft 465kts
08-Mar-18 09:52 58.316772 -15.982832 288 35683ft 465kts
08-Mar-18 09:53 58.360277 -16.214094 288 35689ft 465kts
08-Mar-18 09:54 58.403421 -16.446366 288 35694ft 465kts
08-Mar-18 09:55 58.446321 -16.679993 288 35700ft 466kts
08-Mar-18 09:56 58.488698 -16.913675 288 35705ft 466kts
08-Mar-18 09:57 58.530774 -17.148665 287 35713ft 466kts
08-Mar-18 09:58 58.571917 -17.381304 287 35723ft 466kts
08-Mar-18 09:59 58.612983 -17.616509 287 35727ft 466kts
08-Mar-18 10:00 58.653792 -17.853254 287 35731ft 466kts
08-Mar-18 10:01 58.693962 -18.089378 287 35735ft 465kts
08-Mar-18 10:02 58.733862 -18.327010 287 35739ft 466kts
08-Mar-18 10:03 58.773219 -18.564542 287 35742ft 466kts
08-Mar-18 10:04 58.812162 -18.802743 286 35745ft 466kts
08-Mar-18 10:05 58.850764 -19.042103 286 35749ft 466kts
08-Mar-18 10:06 58.888776 -19.281067 286 35751ft 466kts
08-Mar-18 10:07 58.926742 -19.517751 286 35760ft 466kts
08-Mar-18 10:08 58.963657 -19.759210 285 35801ft 467kts
08-Mar-18 10:09 59.000059 -20.000285 285 35803ft 466kts
08-Mar-18 10:10 59.034036 -20.243769 284 35806ft 467kts
08-Mar-18 10:11 59.066934 -20.487466 284 35814ft 467kts
08-Mar-18 10:12 59.100128 -20.731391 285 35816ft 467kts
08-Mar-18 10:13 59.134297 -20.975955 284 35819ft 467kts
08-Mar-18 10:14 59.166854 -21.220455 283 35823ft 467kts
08-Mar-18 10:15 59.198736 -21.464829 283 35825ft 468kts
08-Mar-18 10:16 59.230265 -21.710647 283 35827ft 467kts
08-Mar-18 10:17 59.261362 -21.957178 283 35830ft 467kts
08-Mar-18 10:18 59.292031 -22.204510 282 35832ft 467kts
08-Mar-18 10:19 59.322170 -22.451767 282 35834ft 467kts
08-Mar-18 10:20 59.351828 -22.699366 282 35869ft 467kts
08-Mar-18 10:21 59.381113 -22.948222 282 35877ft 467kts
08-Mar-18 10:22 59.409803 -23.196427 281 35879ft 467kts
08-Mar-18 10:23 59.437874 -23.443754 281 35881ft 467kts
08-Mar-18 10:24 59.465655 -23.693105 281 35834ft 467kts
08-Mar-18 10:25 59.492945 -23.942748 281 35833ft 468kts
08-Mar-18 10:26 59.519879 -24.193915 281 35834ft 468kts
08-Mar-18 10:27 59.546245 -24.444654 281 35835ft 468kts
08-Mar-18 10:28 59.572218 -24.696586 280 35836ft 468kts
08-Mar-18 10:29 59.597616 -24.948049 280 35837ft 467kts
08-Mar-18 10:30 59.622510 -25.199666 280 35846ft 468kts
08-Mar-18 10:31 59.647010 -25.452593 280 35846ft 467kts
08-Mar-18 10:32 59.670776 -25.703260 280 35846ft 467kts
08-Mar-18 10:33 59.694238 -25.956156 280 35842ft 468kts
08-Mar-18 10:34 59.717293 -26.210311 279 35841ft 468kts
08-Mar-18 10:35 59.739800 -26.464130 279 35841ft 468kts
08-Mar-18 10:36 59.761867 -26.718919 279 35841ft 467kts
08-Mar-18 10:37 59.783336 -26.972772 279 35841ft 467kts
08-Mar-18 10:38 59.804329 -27.227132 279 35840ft 468kts
08-Mar-18 10:39 59.824910 -27.482798 278 35840ft 467kts
08-Mar-18 10:40 59.844794 -27.736191 278 35839ft 468kts
08-Mar-18 10:41 59.864401 -27.992667 278 35838ft 468kts
08-Mar-18 10:42 59.883443 -28.248538 278 35837ft 468kts
08-Mar-18 10:43 59.901997 -28.504796 278 35837ft 468kts
08-Mar-18 10:44 59.920112 -28.762199 277 35836ft 468kts
08-Mar-18 10:45 59.937664 -29.018951 277 35834ft 467kts
08-Mar-18 10:46 59.954688 -29.275528 277 35834ft 467kts
08-Mar-18 10:47 59.972205 -29.532913 277 35833ft 467kts
08-Mar-18 10:48 59.987430 -29.787539 276 35831ft 467kts
08-Mar-18 10:49 59.997909 -30.046154 267 35831ft 467kts
08-Mar-18 10:50 59.985838 -30.260598 261 35828ft 467kts
08-Mar-18 10:51 59.967031 -30.516796 262 35826ft 467kts
08-Mar-18 10:52 59.947459 -30.817125 263 35823ft 467kts
08-Mar-18 10:53 59.934045 -31.031053 262 35821ft 467kts
08-Mar-18 10:54 59.916583 -31.287448 262 35864ft 467kts
08-Mar-18 10:55 59.895385 -31.586627 262 35863ft 466kts
08-Mar-18 10:56 59.879886 -31.799131 262 35875ft 465kts
08-Mar-18 10:57 59.860932 -32.052576 262 35875ft 465kts
08-Mar-18 10:58 59.841416 -32.306698 261 35874ft 465kts
08-Mar-18 10:59 59.821391 -32.560769 261 35873ft 467kts
08-Mar-18 11:00 59.800770 -32.815845 261 35872ft 467kts
08-Mar-18 11:01 59.779709 -33.069977 261 35871ft 467kts
08-Mar-18 11:02 59.758145 -33.323913 261 35870ft 467kts
08-Mar-18 11:03 59.736007 -33.578496 261 35869ft 467kts
08-Mar-18 11:04 59.713455 -33.831873 261 35868ft 467kts
08-Mar-18 11:05 59.690468 -34.084341 260 35868ft 467kts
08-Mar-18 11:06 59.666962 -34.336845 260 35867ft 467kts
08-Mar-18 11:07 59.642960 -34.589096 260 35866ft 467kts
08-Mar-18 11:08 59.618372 -34.842066 260 35865ft 468kts
08-Mar-18 11:09 59.593357 -35.094061 260 35865ft 468kts
08-Mar-18 11:10 59.567790 -35.346380 260 35864ft 468kts
08-Mar-18 11:11 59.541810 -35.597579 260 35864ft 468kts
08-Mar-18 11:12 59.515356 -35.848320 260 35864ft 467kts
08-Mar-18 11:13 59.488491 -36.098008 259 35863ft 467kts
08-Mar-18 11:14 59.461082 -36.347982 259 35863ft 468kts
08-Mar-18 11:15 59.433146 -36.597871 259 35863ft 469kts
08-Mar-18 11:16 59.404623 -36.848385 259 35862ft 469kts
08-Mar-18 11:17 59.375708 -37.097742 259 35862ft 469kts
08-Mar-18 11:18 59.346211 -37.347557 259 35869ft 469kts
08-Mar-18 11:19 59.316354 -37.596015 259 35870ft 469kts
08-Mar-18 11:20 59.286044 -37.843861 258 35871ft 469kts
08-Mar-18 11:21 59.255138 -38.092253 258 35873ft 469kts
08-Mar-18 11:22 59.224033 -38.338062 258 35874ft 469kts
08-Mar-18 11:23 59.192148 -38.585823 258 35876ft 470kts
08-Mar-18 11:24 59.159878 -38.832515 258 35877ft 470kts
08-Mar-18 11:25 59.127115 -39.078956 258 35879ft 471kts
08-Mar-18 11:26 59.093747 -39.325964 258 35880ft 471kts
08-Mar-18 11:27 59.060883 -39.571967 257 35881ft 471kts
08-Mar-18 11:28 59.026118 -39.816793 257 35882ft 470kts
08-Mar-18 11:29 58.994629 -40.063575 264 35883ft 469kts
08-Mar-18 11:30 58.979799 -40.311599 266 35885ft 467kts
08-Mar-18 11:31 58.963842 -40.562187 265 35886ft 467kts
08-Mar-18 11:32 58.948419 -40.811996 266 35887ft 467kts
08-Mar-18 11:33 58.932645 -41.061410 265 35906ft 467kts
08-Mar-18 11:34 58.915628 -41.311345 265 35907ft 467kts
08-Mar-18 11:35 58.898084 -41.560444 265 35908ft 468kts
08-Mar-18 11:36 58.879997 -41.809985 265 35909ft 467kts
08-Mar-18 11:37 58.861474 -42.058649 264 35910ft 468kts
08-Mar-18 11:38 58.842605 -42.305411 264 35910ft 468kts
08-Mar-18 11:39 58.823122 -42.553704 264 35911ft 469kts
08-Mar-18 11:40 58.803159 -42.801737 264 35912ft 468kts
08-Mar-18 11:41 58.782656 -43.050281 264 35912ft 468kts
08-Mar-18 11:42 58.761733 -43.297843 264 35913ft 468kts
08-Mar-18 11:43 58.740269 -43.545869 264 35914ft 469kts
08-Mar-18 11:44 58.718380 -43.793024 263 35915ft 469kts
08-Mar-18 11:45 58.695999 -44.040043 263 35915ft 469kts
08-Mar-18 11:46 58.673096 -44.287333 263 35916ft 469kts
08-Mar-18 11:47 58.650101 -44.530297 263 35917ft 469kts
08-Mar-18 11:48 58.626257 -44.776965 263 35918ft 469kts
08-Mar-18 11:49 58.602035 -45.022338 263 35919ft 468kts
08-Mar-18 11:50 58.577353 -45.267300 263 35921ft 468kts
08-Mar-18 11:51 58.552118 -45.512765 263 35962ft 469kts
08-Mar-18 11:52 58.526465 -45.757368 263 35974ft 469kts
08-Mar-18 11:53 58.500350 -46.001636 262 35976ft 469kts
08-Mar-18 11:54 58.473688 -46.246295 262 35979ft 469kts
08-Mar-18 11:55 58.446926 -46.487273 262 35983ft 469kts
08-Mar-18 11:56 58.419337 -46.731203 262 35986ft 469kts
08-Mar-18 11:57 58.391402 -46.973766 262 35990ft 469kts
08-Mar-18 11:58 58.363003 -47.215970 262 35993ft 469kts
08-Mar-18 11:59 58.334058 -47.458523 262 35998ft 469kts
08-Mar-18 12:00 58.304762 -47.699818 262 36002ft 469kts
08-Mar-18 12:01 58.274884 -47.941744 262 36007ft 469kts
08-Mar-18 12:02 58.244638 -48.182574 262 36012ft 469kts
08-Mar-18 12:03 58.214224 -48.420740 262 36017ft 469kts
08-Mar-18 12:04 58.183017 -48.661226 262 36022ft 468kts
08-Mar-18 12:05 58.151494 -48.900270 261 36027ft 468kts
08-Mar-18 12:06 58.119526 -49.138893 261 36033ft 468kts
08-Mar-18 12:07 58.086997 -49.377944 261 36039ft 468kts
08-Mar-18 12:08 58.054924 -49.615777 261 36044ft 468kts
08-Mar-18 12:09 58.020907 -49.853918 261 36050ft 469kts
08-Mar-18 12:10 57.981109 -50.088911 253 36057ft 477kts
08-Mar-18 12:11 57.924026 -50.315189 251 36063ft 479kts
08-Mar-18 12:12 57.867493 -50.539529 251 36078ft 478kts
08-Mar-18 12:13 57.812550 -50.765919 252 36111ft 477kts
08-Mar-18 12:14 57.756649 -50.991865 251 36120ft 477kts
08-Mar-18 12:15 57.700280 -51.215731 251 36129ft 476kts
08-Mar-18 12:16 57.643547 -51.438598 250 36139ft 475kts
08-Mar-18 12:17 57.586329 -51.661124 250 36148ft 474kts
08-Mar-18 12:18 57.528965 -51.882006 250 36287ft 475kts
08-Mar-18 12:19 57.471222 -52.102165 249 36297ft 474kts
08-Mar-18 12:20 57.413550 -52.319924 249 36300ft 474kts
08-Mar-18 12:21 57.355163 -52.538277 249 36303ft 473kts
08-Mar-18 12:22 57.296184 -52.756724 249 36310ft 473kts
08-Mar-18 12:23 57.237080 -52.973543 248 36316ft 473kts
08-Mar-18 12:24 57.177710 -53.189288 248 36318ft 472kts
08-Mar-18 12:25 57.117721 -53.405229 248 36319ft 472kts
08-Mar-18 12:26 57.057683 -53.619338 248 36321ft 472kts
08-Mar-18 12:27 56.997225 -53.832945 247 36323ft 472kts
08-Mar-18 12:28 56.936687 -54.044894 247 36325ft 472kts
08-Mar-18 12:29 56.875662 -54.256573 246 36327ft 470kts
08-Mar-18 12:30 56.814150 -54.468010 246 36329ft 470kts
08-Mar-18 12:31 56.752469 -54.678122 246 36331ft 470kts
08-Mar-18 12:32 56.690444 -54.887514 246 36379ft 470kts
08-Mar-18 12:33 56.627942 -55.096644 245 36383ft 469kts
08-Mar-18 12:34 56.565364 -55.304196 245 36456ft 472kts
08-Mar-18 12:35 56.502510 -55.510816 245 38174ft 467kts
08-Mar-18 12:36 56.439325 -55.716713 244 38388ft 465kts
08-Mar-18 12:37 56.376749 -55.918878 244 38394ft 466kts
08-Mar-18 12:38 56.313000 -56.123085 244 38361ft 466kts
08-Mar-18 12:39 56.249222 -56.325649 243 38300ft 466kts
08-Mar-18 12:40 56.185275 -56.527767 244 38298ft 465kts
08-Mar-18 12:41 56.120893 -56.729805 243 38295ft 465kts
08-Mar-18 12:42 56.055841 -56.929835 243 38293ft 465kts
08-Mar-18 12:43 55.993606 -57.132621 246 38309ft 464kts
08-Mar-18 12:44 55.934224 -57.336931 245 38307ft 464kts
08-Mar-18 12:45 55.874515 -57.538063 245 38303ft 463kts
08-Mar-18 12:46 55.815392 -57.742451 245 38299ft 463kts
08-Mar-18 12:47 55.755289 -57.944920 245 38295ft 464kts
08-Mar-18 12:48 55.694664 -58.146505 244 38291ft 464kts
08-Mar-18 12:49 55.633439 -58.348239 244 38287ft 463kts
08-Mar-18 12:50 55.572112 -58.548582 244 38353ft 464kts
08-Mar-18 12:51 55.510225 -58.749065 244 38363ft 464kts
08-Mar-18 12:52 55.448196 -58.948300 244 38375ft 464kts
08-Mar-18 12:53 55.386410 -59.145108 243 38385ft 464kts
08-Mar-18 12:54 55.323533 -59.343759 243 38409ft 464kts
08-Mar-18 12:55 55.260565 -59.541054 243 38409ft 464kts
08-Mar-18 12:56 55.197271 -59.737747 243 38408ft 464kts
08-Mar-18 12:57 55.133474 -59.934385 243 38407ft 464kts
08-Mar-18 12:58 55.080241 -60.097251 242 38406ft 464kts
08-Mar-18 12:59 55.005050 -60.325438 242 38373ft 464kts
08-Mar-18 13:00 54.940405 -60.519903 242 38391ft 465kts
08-Mar-18 13:01 54.876561 -60.710462 242 38386ft 465kts
08-Mar-18 13:02 54.810432 -60.906269 241 38381ft 465kts
08-Mar-18 13:03 54.755826 -61.066788 241 38375ft 465kts
08-Mar-18 13:04 54.689926 -61.259107 241 38369ft 465kts
08-Mar-18 13:05 54.623409 -61.451708 241 38362ft 465kts
08-Mar-18 13:06 54.556840 -61.642951 240 38355ft 466kts
08-Mar-18 13:07 54.489634 -61.834527 240 38320ft 466kts
08-Mar-18 13:08 54.422351 -62.024839 240 38313ft 466kts
08-Mar-18 13:09 54.354696 -62.214731 240 38304ft 467kts
08-Mar-18 13:10 54.287765 -62.401166 240 38294ft 467kts
08-Mar-18 13:11 54.219581 -62.589655 239 38281ft 467kts
08-Mar-18 13:12 54.150834 -62.778262 239 38260ft 467kts
08-Mar-18 13:13 54.082072 -62.965486 239 38250ft 467kts
08-Mar-18 13:14 54.012695 -63.152958 239 38239ft 467kts
08-Mar-18 13:15 53.943274 -63.339154 238 38230ft 467kts
08-Mar-18 13:16 53.873558 -63.524745 238 38222ft 467kts
08-Mar-18 13:17 53.803287 -63.710430 238 38216ft 467kts
08-Mar-18 13:18 53.733682 -63.893006 238 38212ft 467kts
08-Mar-18 13:19 53.663039 -64.076953 238 38210ft 467kts
08-Mar-18 13:20 53.591907 -64.260819 237 38209ft 467kts
08-Mar-18 13:21 53.520745 -64.443430 237 38208ft 467kts
08-Mar-18 13:22 53.449108 -64.625923 237 38204ft 467kts
08-Mar-18 13:23 53.377387 -64.807312 237 38199ft 468kts
08-Mar-18 13:24 53.305368 -64.988156 236 38192ft 466kts
08-Mar-18 13:25 53.232967 -65.168667 236 38183ft 467kts
08-Mar-18 13:26 53.160493 -65.348070 236 38173ft 467kts
08-Mar-18 13:27 53.088473 -65.525100 236 38162ft 466kts
08-Mar-18 13:28 53.015252 -65.703779 236 38152ft 466kts
08-Mar-18 13:29 52.942017 -65.881292 236 38142ft 466kts
08-Mar-18 13:30 52.868236 -66.058868 235 38135ft 467kts
08-Mar-18 13:31 52.794462 -66.235197 235 38130ft 467kts
08-Mar-18 13:32 52.720195 -66.411497 235 38124ft 467kts
08-Mar-18 13:33 52.646037 -66.586722 235 38114ft 467kts
08-Mar-18 13:34 52.571494 -66.762018 234 38114ft 467kts
08-Mar-18 13:35 52.497244 -66.933749 234 38111ft 467kts
08-Mar-18 13:36 52.425961 -67.111191 239 38112ft 467kts
08-Mar-18 13:37 52.359450 -67.294265 238 38114ft 467kts
08-Mar-18 13:38 52.291937 -67.475038 238 38115ft 466kts
08-Mar-18 13:39 52.225191 -67.656867 238 38116ft 466kts
08-Mar-18 13:40 52.157678 -67.837012 238 38117ft 466kts
08-Mar-18 13:41 52.089753 -68.016406 238 38109ft 466kts
08-Mar-18 13:42 52.021333 -68.195760 238 38108ft 466kts
08-Mar-18 13:43 51.953770 -68.371623 237 38102ft 466kts
08-Mar-18 13:44 51.884946 -68.549533 237 38079ft 467kts
08-Mar-18 13:45 51.815616 -68.727557 237 38055ft 466kts
08-Mar-18 13:46 51.746229 -68.904436 236 38048ft 467kts
08-Mar-18 13:47 51.676298 -69.081495 236 38041ft 467kts
08-Mar-18 13:48 51.606338 -69.257407 236 38035ft 467kts
08-Mar-18 13:49 51.536118 -69.432775 236 38029ft 467kts
08-Mar-18 13:50 51.465408 -69.608176 236 38024ft 467kts
08-Mar-18 13:51 51.394700 -69.782365 235 38018ft 467kts
08-Mar-18 13:52 51.323698 -69.956110 235 38013ft 467kts
08-Mar-18 13:53 51.252351 -70.129543 235 38008ft 467kts
08-Mar-18 13:54 51.180738 -70.302460 235 38003ft 468kts
08-Mar-18 13:55 51.108478 -70.475781 235 37998ft 469kts
08-Mar-18 13:56 51.036142 -70.648134 234 37994ft 469kts
08-Mar-18 13:57 50.963521 -70.820023 234 37989ft 470kts
08-Mar-18 13:58 50.890249 -70.992316 234 37985ft 470kts
08-Mar-18 13:59 50.816944 -71.163555 234 37932ft 470kts
08-Mar-18 14:00 50.743400 -71.334228 233 37926ft 471kts
08-Mar-18 14:01 50.669439 -71.504754 233 37921ft 472kts
08-Mar-18 14:02 50.595139 -71.674953 233 37917ft 472kts
08-Mar-18 14:03 50.520224 -71.845448 233 37913ft 473kts
08-Mar-18 14:04 50.445165 -72.015171 233 37909ft 474kts
08-Mar-18 14:05 50.369845 -72.184386 232 37905ft 474kts
08-Mar-18 14:06 50.293998 -72.353699 232 37892ft 474kts
08-Mar-18 14:07 50.218077 -72.522097 232 37894ft 474kts
08-Mar-18 14:08 50.142615 -72.689782 232 37889ft 473kts
08-Mar-18 14:09 50.066186 -72.856339 232 37884ft 473kts
08-Mar-18 14:10 49.990108 -73.023073 234 37880ft 474kts
08-Mar-18 14:11 49.923316 -73.201718 237 37876ft 479kts
08-Mar-18 14:12 49.856449 -73.379683 236 37872ft 478kts
08-Mar-18 14:13 49.789461 -73.557810 237 37869ft 478kts
08-Mar-18 14:14 49.722458 -73.734917 236 37861ft 477kts
08-Mar-18 14:15 49.654899 -73.911021 236 37860ft 477kts
08-Mar-18 14:16 49.587080 -74.086459 236 37860ft 477kts
08-Mar-18 14:17 49.518911 -74.261610 236 37860ft 478kts
08-Mar-18 14:18 49.450377 -74.436524 236 37859ft 478kts
08-Mar-18 14:19 49.381263 -74.611749 236 37858ft 479kts
08-Mar-18 14:20 49.312045 -74.786078 235 37856ft 479kts
08-Mar-18 14:21 49.242295 -74.960593 235 37855ft 479kts
08-Mar-18 14:22 49.172477 -75.134136 235 37851ft 479kts
08-Mar-18 14:23 49.102410 -75.307160 235 37841ft 480kts
08-Mar-18 14:24 49.031757 -75.480500 235 37839ft 480kts
08-Mar-18 14:25 48.961393 -75.652015 235 37836ft 480kts
08-Mar-18 14:26 48.890401 -75.823952 235 37828ft 481kts
08-Mar-18 14:27 48.818840 -75.996155 235 37824ft 481kts
08-Mar-18 14:28 48.747255 -76.167309 234 37819ft 481kts
08-Mar-18 14:29 48.675111 -76.338708 234 37815ft 481kts
08-Mar-18 14:30 48.602971 -76.509003 234 37810ft 481kts
08-Mar-18 14:31 48.530313 -76.679439 234 37805ft 481kts
08-Mar-18 14:32 48.457656 -76.848798 234 37799ft 481kts
08-Mar-18 14:33 48.384840 -77.017471 234 37794ft 482kts
08-Mar-18 14:34 48.311657 -77.185938 234 37788ft 482kts
08-Mar-18 14:35 48.238188 -77.354014 233 37784ft 482kts
08-Mar-18 14:36 48.164143 -77.522363 233 37782ft 483kts
08-Mar-18 14:37 48.090047 -77.689786 233 37780ft 483kts
08-Mar-18 14:38 48.015683 -77.856783 233 37780ft 483kts
08-Mar-18 14:39 47.940786 -78.023948 233 37783ft 483kts
08-Mar-18 14:40 47.865898 -78.190073 233 37789ft 483kts
08-Mar-18 14:41 47.790819 -78.355611 233 37795ft 483kts
08-Mar-18 14:42 47.715414 -78.520866 233 37799ft 483kts
08-Mar-18 14:43 47.639741 -78.685713 233 37794ft 484kts
08-Mar-18 14:44 47.563548 -78.850692 233 37801ft 484kts
08-Mar-18 14:45 47.487260 -79.014901 233 37807ft 485kts
08-Mar-18 14:46 47.410494 -79.179142 232 37807ft 485kts
08-Mar-18 14:47 47.333719 -79.342433 232 37807ft 484kts
08-Mar-18 14:48 47.256696 -79.505284 232 37805ft 485kts
08-Mar-18 14:49 47.179129 -79.668325 232 37802ft 485kts
08-Mar-18 14:50 47.102004 -79.829486 232 37798ft 485kts
08-Mar-18 14:51 47.024197 -79.991123 232 37794ft 486kts
08-Mar-18 14:52 46.945763 -80.153119 232 37792ft 486kts
08-Mar-18 14:53 46.867273 -80.314293 232 37790ft 487kts
08-Mar-18 14:54 46.788587 -80.475890 232 37790ft 487kts
08-Mar-18 14:55 46.709460 -80.636118 232 37790ft 487kts
08-Mar-18 14:56 46.629070 -80.794583 227 37789ft 486kts
08-Mar-18 14:57 46.529258 -80.926451 217 37790ft 483kts
08-Mar-18 14:58 46.426597 -81.050178 218 37790ft 484kts
08-Mar-18 14:59 46.323888 -81.177294 219 37795ft 485kts
08-Mar-18 15:00 46.221479 -81.304173 219 37799ft 485kts
08-Mar-18 15:01 46.118715 -81.430315 219 37804ft 486kts
08-Mar-18 15:02 46.015311 -81.556542 219 37809ft 486kts
08-Mar-18 15:03 45.912040 -81.681962 219 37818ft 487kts
08-Mar-18 15:04 45.808500 -81.807077 219 37822ft 487kts
08-Mar-18 15:05 45.704490 -81.932125 219 37825ft 487kts
08-Mar-18 15:06 45.601138 -82.055757 219 37826ft 487kts
08-Mar-18 15:07 45.496768 -82.179992 219 37833ft 487kts
08-Mar-18 15:08 45.409954 -82.282855 219 37836ft 488kts
08-Mar-18 15:09 45.305637 -82.405897 219 37838ft 488kts
08-Mar-18 15:10 45.183218 -82.549519 219 37843ft 489kts
08-Mar-18 15:11 45.078408 -82.671827 219 37860ft 489kts
08-Mar-18 15:12 44.990888 -82.773500 219 37857ft 489kts
08-Mar-18 15:13 44.885436 -82.895456 219 37866ft 489kts
08-Mar-18 15:14 44.780083 -83.016706 219 37867ft 489kts
08-Mar-18 15:15 44.657276 -83.157829 219 37867ft 489kts
08-Mar-18 15:16 44.569090 -83.258130 219 37868ft 490kts
08-Mar-18 15:17 44.463068 -83.378086 219 37869ft 490kts
08-Mar-18 15:18 44.365026 -83.511138 227 37870ft 490kts
08-Mar-18 15:19 44.270342 -83.648038 226 37874ft 490kts
08-Mar-18 15:20 44.174577 -83.784337 226 37884ft 491kts
08-Mar-18 15:21 44.079115 -83.920024 226 37898ft 491kts
08-Mar-18 15:22 43.983233 -84.054908 226 37906ft 491kts
08-Mar-18 15:23 43.887329 -84.189085 226 37914ft 491kts
08-Mar-18 15:24 43.791083 -84.323081 226 37918ft 491kts
08-Mar-18 15:25 43.694617 -84.456734 226 37919ft 491kts
08-Mar-18 15:26 43.597698 -84.590366 226 37921ft 491kts
08-Mar-18 15:27 43.500851 -84.723257 226 37924ft 492kts
08-Mar-18 15:28 43.403546 -84.856142 226 37938ft 492kts
08-Mar-18 15:29 43.306319 -84.988285 226 37944ft 492kts
08-Mar-18 15:30 43.208932 -85.120020 226 37960ft 492kts
08-Mar-18 15:31 43.111484 -85.251211 227 37969ft 493kts
08-Mar-18 15:32 43.013619 -85.382344 227 37978ft 493kts
08-Mar-18 15:33 42.915359 -85.513386 227 37989ft 493kts
08-Mar-18 15:34 42.817290 -85.643565 227 37994ft 492kts
08-Mar-18 15:35 42.719034 -85.773386 227 38015ft 493kts
08-Mar-18 15:36 42.620540 -85.903486 227 38032ft 493kts
08-Mar-18 15:37 42.521834 -86.032273 227 38039ft 492kts
08-Mar-18 15:38 42.421035 -86.159038 223 38054ft 495kts
08-Mar-18 15:39 42.314379 -86.276763 223 38060ft 495kts
08-Mar-18 15:40 42.208833 -86.394598 223 38067ft 495kts
08-Mar-18 15:41 42.103084 -86.514019 223 38070ft 495kts
08-Mar-18 15:42 41.997253 -86.632332 223 38074ft 495kts
08-Mar-18 15:43 41.891475 -86.749925 224 38081ft 493kts
08-Mar-18 15:44 41.785321 -86.867406 224 38088ft 493kts
08-Mar-18 15:45 41.679435 -86.984071 224 38085ft 493kts
08-Mar-18 15:46 41.573162 -87.100648 224 38087ft 493kts
08-Mar-18 15:47 41.467109 -87.216477 224 38088ft 493kts
08-Mar-18 15:48 41.361479 -87.331342 225 38094ft 493kts
08-Mar-18 15:49 41.254873 -87.446764 225 38104ft 493kts
08-Mar-18 15:50 41.148525 -87.561406 225 38111ft 493kts
08-Mar-18 15:51 41.041747 -87.676020 225 38117ft 493kts
08-Mar-18 15:52 40.935208 -87.789893 225 38120ft 492kts
08-Mar-18 15:53 40.828658 -87.903341 225 38128ft 492kts
08-Mar-18 15:54 40.721849 -88.016821 225 38129ft 491kts
08-Mar-18 15:55 40.615166 -88.129121 225 38131ft 492kts
08-Mar-18 15:56 40.500435 -88.228548 215 38136ft 502kts
08-Mar-18 15:57 40.377529 -88.316249 215 38138ft 501kts
08-Mar-18 15:58 40.256251 -88.405361 216 38136ft 500kts
08-Mar-18 15:59 40.134947 -88.495133 216 38133ft 500kts
08-Mar-18 16:00 40.013790 -88.584082 216 38134ft 500kts
08-Mar-18 16:01 39.892673 -88.672597 216 38137ft 499kts
08-Mar-18 16:02 39.770835 -88.761272 216 38604ft 503kts
08-Mar-18 16:03 39.649965 -88.848888 216 40138ft 498kts
08-Mar-18 16:04 39.529750 -88.935677 216 40153ft 495kts
08-Mar-18 16:05 39.409612 -89.022062 216 40158ft 495kts
08-Mar-18 16:06 39.289322 -89.108212 216 40160ft 495kts
08-Mar-18 16:07 39.168562 -89.194358 216 40160ft 495kts
08-Mar-18 16:08 39.048139 -89.279927 216 40167ft 495kts
08-Mar-18 16:09 38.927633 -89.365214 216 40166ft 495kts
08-Mar-18 16:10 38.806735 -89.450449 216 40165ft 494kts
08-Mar-18 16:11 38.686404 -89.534951 216 40167ft 494kts
08-Mar-18 16:12 38.565682 -89.619404 216 40172ft 493kts
08-Mar-18 16:13 38.445953 -89.702837 216 40173ft 493kts
08-Mar-18 16:14 38.325635 -89.786365 216 40178ft 493kts
08-Mar-18 16:15 38.204842 -89.869901 217 40185ft 493kts
08-Mar-18 16:16 38.084398 -89.952883 216 40186ft 493kts
08-Mar-18 16:17 37.963912 -90.035582 216 40182ft 493kts
08-Mar-18 16:18 37.843035 -90.118455 216 40177ft 493kts
08-Mar-18 16:19 37.722342 -90.200499 216 40173ft 493kts
08-Mar-18 16:20 37.601203 -90.282629 216 40173ft 493kts
08-Mar-18 16:21 37.480989 -90.363704 216 40175ft 493kts
08-Mar-18 16:22 37.360193 -90.444912 217 40178ft 492kts
08-Mar-18 16:23 37.239545 -90.526403 217 40182ft 491kts
08-Mar-18 16:24 37.119181 -90.607011 217 40186ft 491kts
08-Mar-18 16:25 36.998998 -90.687156 217 40186ft 489kts
08-Mar-18 16:26 36.878448 -90.767249 217 40186ft 489kts
08-Mar-18 16:27 36.758433 -90.846700 217 40193ft 488kts
08-Mar-18 16:28 36.638194 -90.926016 217 40195ft 488kts
08-Mar-18 16:29 36.518307 -91.004817 217 40195ft 488kts
08-Mar-18 16:30 36.398960 -91.082989 217 40195ft 486kts
08-Mar-18 16:31 36.278989 -91.161296 217 40198ft 486kts
08-Mar-18 16:32 36.159357 -91.239107 217 40195ft 486kts
08-Mar-18 16:33 36.039298 -91.316926 217 40195ft 486kts
08-Mar-18 16:34 35.919743 -91.394149 217 40194ft 484kts
08-Mar-18 16:35 35.800481 -91.470921 216 40192ft 484kts
08-Mar-18 16:36 35.680729 -91.547746 216 40191ft 484kts
08-Mar-18 16:37 35.561314 -91.624093 216 40192ft 484kts
08-Mar-18 16:38 35.442341 -91.699901 216 40194ft 484kts
08-Mar-18 16:39 35.322425 -91.776055 216 40198ft 484kts
08-Mar-18 16:40 35.202872 -91.851724 216 40198ft 484kts
08-Mar-18 16:41 35.082855 -91.927433 216 40192ft 484kts
08-Mar-18 16:42 34.963303 -92.002615 216 40184ft 483kts
08-Mar-18 16:43 34.843910 -92.077593 216 40183ft 484kts
08-Mar-18 16:44 34.724074 -92.152305 216 40188ft 482kts
08-Mar-18 16:45 34.592725 -92.199939 195 40190ft 509kts
08-Mar-18 16:46 34.453059 -92.223445 197 40195ft 507kts
08-Mar-18 16:47 34.314130 -92.249493 197 40205ft 505kts
08-Mar-18 16:48 34.175358 -92.275418 197 40209ft 505kts
08-Mar-18 16:49 34.036075 -92.301304 197 40212ft 505kts
08-Mar-18 16:50 33.897243 -92.327010 197 40210ft 505kts
08-Mar-18 16:51 33.758403 -92.352756 197 40208ft 505kts
08-Mar-18 16:52 33.619066 -92.378498 197 40206ft 506kts
08-Mar-18 16:53 33.480113 -92.403975 197 40208ft 506kts
08-Mar-18 16:54 33.340741 -92.429529 197 40209ft 504kts
08-Mar-18 16:55 33.202729 -92.454809 197 40211ft 505kts
08-Mar-18 16:56 33.063995 -92.480140 197 40219ft 505kts
08-Mar-18 16:57 32.924803 -92.505650 197 40223ft 505kts
08-Mar-18 16:58 32.786009 -92.530832 197 40230ft 504kts
08-Mar-18 16:59 32.647050 -92.555982 197 40236ft 504kts
08-Mar-18 17:00 32.508524 -92.580972 197 40239ft 504kts
08-Mar-18 17:01 32.369894 -92.605896 197 40238ft 504kts
08-Mar-18 17:02 32.230819 -92.630982 197 40236ft 504kts
08-Mar-18 17:03 32.092757 -92.655660 197 40234ft 504kts
08-Mar-18 17:04 31.954087 -92.680355 197 40234ft 504kts
08-Mar-18 17:05 31.815106 -92.704797 197 40235ft 504kts
08-Mar-18 17:06 31.676461 -92.728938 197 40233ft 504kts
08-Mar-18 17:07 31.537227 -92.752748 197 40232ft 505kts
08-Mar-18 17:08 31.398228 -92.776334 197 40229ft 506kts
08-Mar-18 17:09 31.258865 -92.799800 197 40225ft 506kts
08-Mar-18 17:10 31.219751 -92.806303 197 40224ft 507kts
08-Mar-18 17:11 31.219751 -92.806303 197 40224ft 507kts
08-Mar-18 17:12 31.219751 -92.806303 197 40224ft 507kts
08-Mar-18 17:13 31.219751 -92.806303 197 40224ft 507kts
08-Mar-18 17:14 31.219751 -92.806303 197 40224ft 507kts
08-Mar-18 17:15 31.219751 -92.806303 197 40224ft 507kts
08-Mar-18 17:16 31.219751 -92.806303 197 40224ft 507kts
08-Mar-18 17:17 31.219751 -92.806303 197 40224ft 507kts
08-Mar-18 17:18 31.219751 -92.806303 197 40224ft 507kts
08-Mar-18 17:19 31.219751 -92.806303 197 40224ft 507kts
08-Mar-18 17:20 31.219751 -92.806303 197 40224ft 507kts
08-Mar-18 17:21 31.219751 -92.806303 197 40224ft 507kts
08-Mar-18 17:22 31.219751 -92.806303 197 40224ft 507kts
08-Mar-18 17:23 31.219751 -92.806303 197 40224ft 507kts
08-Mar-18 17:24 31.219751 -92.806303 197 40224ft 507kts
08-Mar-18 17:25 31.219751 -92.806303 197 40224ft 507kts
08-Mar-18 17:26 31.219751 -92.806303 197 40224ft 507kts
08-Mar-18 17:27 31.219751 -92.806303 197 40224ft 507kts
08-Mar-18 17:28 31.219751 -92.806303 197 40224ft 507kts
08-Mar-18 17:29 31.219751 -92.806303 197 40224ft 507kts
08-Mar-18 17:30 31.219751 -92.806303 197 40224ft 507kts
08-Mar-18 17:31 31.219751 -92.806303 197 40224ft 507kts
08-Mar-18 17:32 31.219751 -92.806303 197 40224ft 507kts
08-Mar-18 17:33 31.219751 -92.806303 197 40224ft 507kts
08-Mar-18 17:34 31.219751 -92.806303 197 40224ft 507kts
08-Mar-18 17:35 31.219751 -92.806303 197 40224ft 507kts
08-Mar-18 17:36 31.219751 -92.806303 197 40224ft 507kts
08-Mar-18 17:37 31.219751 -92.806303 197 40224ft 507kts
08-Mar-18 17:38 31.219751 -92.806303 197 40224ft 507kts
08-Mar-18 17:39 31.219751 -92.806303 197 40224ft 507kts
08-Mar-18 17:40 31.219751 -92.806303 197 40224ft 507kts
08-Mar-18 17:41 31.219751 -92.806303 197 40224ft 507kts
08-Mar-18 17:42 31.219751 -92.806303 197 40224ft 507kts
08-Mar-18 17:43 31.219751 -92.806303 197 40224ft 507kts
08-Mar-18 17:44 31.219751 -92.806303 197 40224ft 507kts
08-Mar-18 17:45 31.219751 -92.806303 197 40224ft 507kts
08-Mar-18 17:46 31.219751 -92.806303 197 40224ft 507kts
08-Mar-18 17:47 31.219751 -92.806303 197 40224ft 507kts
08-Mar-18 17:48 31.219751 -92.806303 197 40224ft 507kts
08-Mar-18 17:49 31.219751 -92.806303 197 40224ft 507kts
08-Mar-18 17:50 31.219751 -92.806303 197 40224ft 507kts
08-Mar-18 17:51 31.219751 -92.806303 197 40224ft 507kts
08-Mar-18 17:52 31.219751 -92.806303 197 40224ft 507kts
08-Mar-18 17:53 31.219751 -92.806303 197 40224ft 507kts
08-Mar-18 17:54 31.219751 -92.806303 197 40224ft 507kts
08-Mar-18 17:55 31.219751 -92.806303 197 40224ft 507kts
08-Mar-18 17:56 31.219751 -92.806303 197 40224ft 507kts
08-Mar-18 17:57 31.219751 -92.806303 197 40224ft 507kts
08-Mar-18 17:58 31.219751 -92.806303 197 40224ft 507kts
08-Mar-18 17:59 31.219751 -92.806303 197 40224ft 507kts
08-Mar-18 18:00 31.219751 -92.806303 197 40224ft 507kts
08-Mar-18 18:01 31.219751 -92.806303 197 40224ft 507kts
08-Mar-18 18:02 31.219751 -92.806303 197 40224ft 507kts
08-Mar-18 18:03 31.219751 -92.806303 197 40224ft 507kts
08-Mar-18 18:04 31.219751 -92.806303 197 40224ft 507kts
08-Mar-18 18:05 31.219751 -92.806303 197 40224ft 507kts
08-Mar-18 18:06 31.219751 -92.806303 197 40224ft 507kts
08-Mar-18 18:07 31.219751 -92.806303 197 40224ft 507kts
08-Mar-18 18:08 31.219751 -92.806303 197 40224ft 507kts
08-Mar-18 18:09 31.219751 -92.806303 197 40224ft 507kts
08-Mar-18 18:10 31.219751 -92.806303 197 40224ft 507kts
08-Mar-18 18:11 31.219751 -92.806303 197 40224ft 507kts
08-Mar-18 18:12 31.219751 -92.806303 197 40224ft 507kts
08-Mar-18 18:13 31.219751 -92.806303 197 40224ft 507kts
08-Mar-18 18:14 31.219751 -92.806303 197 40224ft 507kts
08-Mar-18 18:15 31.219751 -92.806303 197 40224ft 507kts
08-Mar-18 18:16 31.219751 -92.806303 197 40224ft 507kts
08-Mar-18 18:17 31.219751 -92.806303 197 40224ft 507kts
08-Mar-18 18:18 31.219751 -92.806303 197 40224ft 507kts
08-Mar-18 18:19 31.219751 -92.806303 197 40224ft 507kts
08-Mar-18 18:20 31.219751 -92.806303 197 40224ft 507kts
08-Mar-18 18:21 31.219751 -92.806303 197 40224ft 507kts
08-Mar-18 18:22 31.219751 -92.806303 197 40224ft 507kts
08-Mar-18 18:23 31.219751 -92.806303 197 40224ft 507kts
08-Mar-18 18:24 31.219751 -92.806303 197 40224ft 507kts
08-Mar-18 18:25 31.219751 -92.806303 197 40224ft 507kts
08-Mar-18 18:26 31.219751 -92.806303 197 40224ft 507kts
08-Mar-18 18:27 31.219751 -92.806303 197 40224ft 507kts
08-Mar-18 18:28 31.219751 -92.806303 197 40224ft 507kts
08-Mar-18 18:29 31.219751 -92.806303 197 40224ft 507kts
08-Mar-18 18:30 31.219751 -92.806303 197 40224ft 507kts
08-Mar-18 18:31 31.219751 -92.806303 197 40224ft 507kts
08-Mar-18 18:32 31.219751 -92.806303 197 40224ft 507kts
08-Mar-18 18:33 31.219751 -92.806303 197 40224ft 507kts
08-Mar-18 18:34 31.219751 -92.806303 197 40224ft 507kts
08-Mar-18 18:35 31.219751 -92.806303 197 40224ft 507kts
08-Mar-18 18:36 31.219751 -92.806303 197 40224ft 507kts
08-Mar-18 18:37 31.219751 -92.806303 197 40224ft 507kts
08-Mar-18 18:38 31.219751 -92.806303 197 40224ft 507kts
08-Mar-18 18:39 31.219751 -92.806303 197 40224ft 507kts
08-Mar-18 18:40 31.219751 -92.806303 197 40224ft 507kts
08-Mar-18 18:41 31.219751 -92.806303 197 40224ft 507kts
08-Mar-18 18:42 31.219751 -92.806303 197 40224ft 507kts
08-Mar-18 18:43 31.219751 -92.806303 197 40224ft 507kts
08-Mar-18 18:44 31.219751 -92.806303 197 40224ft 507kts
08-Mar-18 18:45 31.219751 -92.806303 197 40224ft 507kts
08-Mar-18 18:46 31.219751 -92.806303 197 40224ft 507kts
08-Mar-18 18:47 31.219751 -92.806303 197 40224ft 507kts
08-Mar-18 18:48 31.219751 -92.806303 197 40224ft 507kts
08-Mar-18 18:49 31.219751 -92.806303 197 40224ft 507kts
08-Mar-18 18:50 31.219751 -92.806303 197 40224ft 507kts
08-Mar-18 18:51 31.219751 -92.806303 197 40224ft 507kts
08-Mar-18 18:52 31.219751 -92.806303 197 40224ft 507kts
08-Mar-18 18:53 31.219751 -92.806303 197 40224ft 507kts
08-Mar-18 18:54 31.219751 -92.806303 197 40224ft 507kts
08-Mar-18 18:55 31.219751 -92.806303 197 40224ft 507kts
08-Mar-18 18:56 31.219751 -92.806303 197 40224ft 507kts
08-Mar-18 18:57 31.219751 -92.806303 197 40224ft 507kts
08-Mar-18 18:58 31.219751 -92.806303 197 40224ft 507kts
08-Mar-18 18:59 31.219751 -92.806303 197 40224ft 507kts
08-Mar-18 19:00 31.219751 -92.806303 197 40224ft 507kts
08-Mar-18 19:01 31.219751 -92.806303 197 40224ft 507kts
08-Mar-18 19:02 31.219751 -92.806303 197 40224ft 507kts
08-Mar-18 19:03 31.219751 -92.806303 197 40224ft 507kts
08-Mar-18 19:04 31.219751 -92.806303 197 40224ft 507kts
08-Mar-18 19:05 31.219751 -92.806303 197 40224ft 507kts
08-Mar-18 19:06 31.219751 -92.806303 197 40224ft 507kts
08-Mar-18 19:07 31.219751 -92.806303 197 40224ft 507kts
08-Mar-18 19:08 31.219751 -92.806303 197 40224ft 507kts
08-Mar-18 19:09 31.219751 -92.806303 197 40224ft 507kts
08-Mar-18 19:10 31.219751 -92.806303 197 40224ft 507kts
08-Mar-18 19:11 31.219751 -92.806303 197 40224ft 507kts
08-Mar-18 19:12 31.219751 -92.806303 197 40224ft 507kts
08-Mar-18 19:13 31.219751 -92.806303 197 40224ft 507kts
08-Mar-18 19:14 31.219751 -92.806303 197 40224ft 507kts
08-Mar-18 19:15 31.219751 -92.806303 197 40224ft 507kts
08-Mar-18 19:16 31.219751 -92.806303 197 40224ft 507kts
08-Mar-18 19:17 31.219751 -92.806303 197 40224ft 507kts
08-Mar-18 19:18 31.219751 -92.806303 197 40224ft 507kts
08-Mar-18 19:19 31.219751 -92.806303 197 40224ft 507kts
08-Mar-18 19:20 31.219751 -92.806303 197 40224ft 507kts
08-Mar-18 19:21 31.219751 -92.806303 197 40224ft 507kts
08-Mar-18 19:22 31.219751 -92.806303 197 40224ft 507kts
08-Mar-18 19:23 31.219751 -92.806303 197 40224ft 507kts
08-Mar-18 19:24 31.219751 -92.806303 197 40224ft 507kts
08-Mar-18 19:25 31.219751 -92.806303 197 40224ft 507kts
08-Mar-18 19:26 31.219751 -92.806303 197 40224ft 507kts
08-Mar-18 19:27 31.219751 -92.806303 197 40224ft 507kts
08-Mar-18 19:28 31.219751 -92.806303 197 40224ft 507kts
08-Mar-18 19:29 31.219751 -92.806303 197 40224ft 507kts
08-Mar-18 19:30 31.219751 -92.806303 197 40224ft 507kts
08-Mar-18 19:31 31.219751 -92.806303 197 40224ft 507kts
08-Mar-18 19:32 31.219751 -92.806303 197 40224ft 507kts
08-Mar-18 19:33 31.219751 -92.806303 197 40224ft 507kts
08-Mar-18 19:34 31.219751 -92.806303 197 40224ft 507kts
08-Mar-18 19:35 31.219751 -92.806303 197 40224ft 507kts
08-Mar-18 19:36 31.219751 -92.806303 197 40224ft 507kts
08-Mar-18 19:37 31.219751 -92.806303 197 40224ft 507kts
08-Mar-18 19:38 31.219751 -92.806303 197 40224ft 507kts
08-Mar-18 19:39 31.219751 -92.806303 197 40224ft 507kts
08-Mar-18 19:40 31.219751 -92.806303 197 40224ft 507kts
08-Mar-18 19:41 31.219751 -92.806303 197 40224ft 507kts
08-Mar-18 19:42 31.219751 -92.806303 197 40224ft 507kts
08-Mar-18 19:43 31.219751 -92.806303 197 40224ft 507kts
08-Mar-18 19:44 31.219751 -92.806303 197 40224ft 507kts
08-Mar-18 19:45 31.219751 -92.806303 197 40224ft 507kts
08-Mar-18 19:46 31.219751 -92.806303 197 40224ft 507kts
08-Mar-18 19:47 31.219751 -92.806303 197 40224ft 507kts
08-Mar-18 19:48 31.219751 -92.806303 197 40224ft 507kts
08-Mar-18 19:49 31.219751 -92.806303 197 40224ft 507kts
08-Mar-18 19:50 31.219751 -92.806303 197 40224ft 507kts
08-Mar-18 19:51 31.219751 -92.806303 197 40224ft 507kts
08-Mar-18 19:52 31.219751 -92.806303 197 40224ft 507kts
08-Mar-18 19:53 31.219751 -92.806303 197 40224ft 507kts
08-Mar-18 19:54 31.219751 -92.806303 197 40224ft 507kts
08-Mar-18 19:55 31.219751 -92.806303 197 40224ft 507kts
08-Mar-18 19:56 31.219751 -92.806303 197 40224ft 507kts
08-Mar-18 19:57 31.219751 -92.806303 197 40224ft 507kts
08-Mar-18 19:58 31.219751 -92.806303 197 40224ft 507kts
08-Mar-18 19:59 31.219751 -92.806303 197 40224ft 507kts
08-Mar-18 20:00 31.219751 -92.806303 197 40224ft 507kts
08-Mar-18 20:01 31.219751 -92.806303 197 40224ft 507kts
08-Mar-18 20:02 31.219751 -92.806303 197 40224ft 507kts
08-Mar-18 20:03 31.219751 -92.806303 197 40224ft 507kts
08-Mar-18 20:04 31.219751 -92.806303 197 40224ft 507kts
08-Mar-18 20:05 31.219751 -92.806303 197 40224ft 507kts
08-Mar-18 20:06 31.219751 -92.806303 197 40224ft 507kts
08-Mar-18 20:07 31.219751 -92.806303 197 40224ft 507kts
08-Mar-18 20:08 31.219751 -92.806303 197 40224ft 507kts
08-Mar-18 20:09 31.219751 -92.806303 197 40224ft 507kts
08-Mar-18 20:10 31.219751 -92.806303 197 40224ft 507kts
08-Mar-18 20:11 31.219751 -92.806303 197 40224ft 507kts
08-Mar-18 20:12 31.219751 -92.806303 197 40224ft 507kts
08-Mar-18 20:13 31.219751 -92.806303 197 40224ft 507kts
08-Mar-18 20:14 31.219751 -92.806303 197 40224ft 507kts
08-Mar-18 20:15 31.219751 -92.806303 197 40224ft 507kts
08-Mar-18 20:16 31.219751 -92.806303 197 40224ft 507kts
08-Mar-18 20:17 31.219751 -92.806303 197 40224ft 507kts
08-Mar-18 20:18 31.219751 -92.806303 197 40224ft 507kts
08-Mar-18 20:19 31.219751 -92.806303 197 40224ft 507kts
08-Mar-18 20:20 31.219751 -92.806303 197 40224ft 507kts
08-Mar-18 20:21 31.219751 -92.806303 197 40224ft 507kts
08-Mar-18 20:22 31.219751 -92.806303 197 40224ft 507kts
08-Mar-18 20:23 31.219751 -92.806303 197 40224ft 507kts
08-Mar-18 20:24 31.219751 -92.806303 197 40224ft 507kts
08-Mar-18 20:25 31.219751 -92.806303 197 40224ft 507kts
08-Mar-18 20:26 31.219751 -92.806303 197 40224ft 507kts
08-Mar-18 20:27 31.219751 -92.806303 197 40224ft 507kts
08-Mar-18 20:28 31.219751 -92.806303 197 40224ft 507kts
08-Mar-18 20:29 31.219751 -92.806303 197 40224ft 507kts
08-Mar-18 20:30 31.219751 -92.806303 197 40224ft 507kts
08-Mar-18 20:31 31.219751 -92.806303 197 40224ft 507kts
08-Mar-18 20:32 31.219751 -92.806303 197 40224ft 507kts
08-Mar-18 20:33 31.219751 -92.806303 197 40224ft 507kts
08-Mar-18 20:34 31.219751 -92.806303 197 40224ft 507kts
08-Mar-18 20:35 31.219751 -92.806303 197 40224ft 507kts
08-Mar-18 20:36 31.219751 -92.806303 197 40224ft 507kts
08-Mar-18 20:37 31.219751 -92.806303 197 40224ft 507kts
08-Mar-18 20:38 31.219751 -92.806303 197 40224ft 507kts
08-Mar-18 20:39 31.219751 -92.806303 197 40224ft 507kts
08-Mar-18 20:40 31.219751 -92.806303 197 40224ft 507kts
08-Mar-18 20:41 31.219751 -92.806303 197 40224ft 507kts
08-Mar-18 20:42 31.219751 -92.806303 197 40224ft 507kts
08-Mar-18 20:43 31.219751 -92.806303 197 40224ft 507kts
08-Mar-18 20:44 31.219751 -92.806303 197 40224ft 507kts
08-Mar-18 20:45 31.219751 -92.806303 197 40224ft 507kts
08-Mar-18 20:46 31.219751 -92.806303 197 40224ft 507kts
08-Mar-18 20:47 31.219751 -92.806303 197 40224ft 507kts
08-Mar-18 20:48 31.219751 -92.806303 197 40224ft 507kts
08-Mar-18 20:49 31.219751 -92.806303 197 40224ft 507kts
08-Mar-18 20:50 31.219751 -92.806303 197 40224ft 507kts
08-Mar-18 20:51 31.219751 -92.806303 197 40224ft 507kts
08-Mar-18 20:52 31.219751 -92.806303 197 40224ft 507kts
08-Mar-18 20:53 31.219751 -92.806303 197 40224ft 507kts
08-Mar-18 20:54 31.219751 -92.806303 197 40224ft 507kts
08-Mar-18 20:55 31.219751 -92.806303 197 40224ft 507kts
08-Mar-18 20:56 31.219751 -92.806303 197 40224ft 507kts
08-Mar-18 20:57 31.219751 -92.806303 197 40224ft 507kts
08-Mar-18 20:58 31.219751 -92.806303 197 40224ft 507kts
08-Mar-18 20:59 31.219751 -92.806303 197 40224ft 507kts
08-Mar-18 21:00 31.219751 -92.806303 197 40224ft 507kts
08-Mar-18 21:01 31.219751 -92.806303 197 40224ft 507kts
08-Mar-18 21:02 31.219751 -92.806303 197 40224ft 507kts
08-Mar-18 21:03 31.219751 -92.806303 197 40224ft 507kts
08-Mar-18 21:04 31.219751 -92.806303 197 40224ft 507kts
08-Mar-18 21:05 31.219751 -92.806303 197 40224ft 507kts
08-Mar-18 21:06 31.219751 -92.806303 197 40224ft 507kts
08-Mar-18 21:07 31.219751 -92.806303 197 40224ft 507kts
08-Mar-18 21:08 31.219751 -92.806303 197 40224ft 507kts
08-Mar-18 21:09 31.219751 -92.806303 197 40224ft 507kts
08-Mar-18 21:10 31.219751 -92.806303 197 40224ft 507kts
08-Mar-18 21:11 31.219751 -92.806303 197 40224ft 507kts
08-Mar-18 21:12 31.219751 -92.806303 197 40224ft 507kts
08-Mar-18 21:13 31.219751 -92.806303 197 40224ft 507kts
08-Mar-18 21:14 31.219751 -92.806303 197 40224ft 507kts
08-Mar-18 21:15 31.219751 -92.806303 197 40224ft 507kts
08-Mar-18 21:16 31.219751 -92.806303 197 40224ft 507kts
08-Mar-18 21:17 31.219751 -92.806303 197 40224ft 507kts
08-Mar-18 21:18 31.219751 -92.806303 197 40224ft 507kts
08-Mar-18 21:19 31.219751 -92.806303 197 40224ft 507kts
08-Mar-18 21:20 31.219751 -92.806303 197 40224ft 507kts
08-Mar-18 21:21 31.219751 -92.806303 197 40224ft 507kts
08-Mar-18 21:22 31.219751 -92.806303 197 40224ft 507kts
08-Mar-18 21:23 31.219751 -92.806303 197 40224ft 507kts
08-Mar-18 21:24 31.219751 -92.806303 197 40224ft 507kts
08-Mar-18 21:25 31.219751 -92.806303 197 40224ft 507kts
08-Mar-18 21:26 31.219751 -92.806303 197 40224ft 507kts
08-Mar-18 21:27 31.219751 -92.806303 197 40224ft 507kts
08-Mar-18 21:28 31.219751 -92.806303 197 40224ft 507kts
08-Mar-18 21:29 31.219751 -92.806303 197 40224ft 507kts
08-Mar-18 21:30 31.219751 -92.806303 197 40224ft 507kts
08-Mar-18 21:31 31.219751 -92.806303 197 40224ft 507kts
08-Mar-18 21:32 31.219751 -92.806303 197 40224ft 507kts
08-Mar-18 21:33 31.219751 -92.806303 197 40224ft 507kts
08-Mar-18 21:34 31.219751 -92.806303 197 40224ft 507kts
08-Mar-18 21:35 31.219751 -92.806303 197 40224ft 507kts
08-Mar-18 21:36 31.219751 -92.806303 197 40224ft 507kts
08-Mar-18 21:37 31.125029 -92.826189 213 40235ft 481kts
08-Mar-18 21:38 31.058798 -92.931624 273 40232ft 393kts
08-Mar-18 21:39 31.048282 -93.061569 271 40233ft 403kts
08-Mar-18 21:40 31.039451 -93.169124 271 40239ft 401kts
08-Mar-18 21:41 31.039451 -93.169124 271 40239ft 401kts
08-Mar-18 21:42 31.039451 -93.169124 271 40239ft 401kts
08-Mar-18 21:43 31.039451 -93.169124 271 40239ft 401kts
08-Mar-18 21:44 31.033244 -93.244244 272 40239ft 400kts
08-Mar-18 21:45 31.022482 -93.373362 272 40081ft 400kts
08-Mar-18 21:46 31.011285 -93.506031 271 37840ft 447kts
08-Mar-18 21:47 31.000061 -93.641170 272 38737ft 411kts
08-Mar-18 21:48 30.988195 -93.777672 271 38365ft 424kts
08-Mar-18 21:49 30.976606 -93.908922 271 35672ft 395kts
08-Mar-18 21:50 30.926947 -94.024108 236 32976ft 424kts
08-Mar-18 21:51 30.844253 -94.118819 238 30282ft 408kts
08-Mar-18 21:52 30.768474 -94.213915 237 27578ft 393kts
08-Mar-18 21:53 30.695487 -94.305527 235 24882ft 381kts
08-Mar-18 21:54 30.624324 -94.394114 234 22596ft 376kts
08-Mar-18 21:55 30.553293 -94.482391 233 20491ft 371kts
08-Mar-18 21:56 30.488449 -94.572992 239 18391ft 361kts
08-Mar-18 21:57 30.425408 -94.666041 236 16415ft 364kts
08-Mar-18 21:58 30.362342 -94.753569 232 14051ft 344kts
08-Mar-18 21:59 30.300226 -94.834787 232 11656ft 331kts
08-Mar-18 22:00 30.242442 -94.914090 232 9781ft 307kts
08-Mar-18 22:01 30.188540 -94.988702 230 8382ft 300kts
08-Mar-18 22:02 30.134416 -95.063326 229 7993ft 316kts
08-Mar-18 22:03 30.061385 -95.111627 199 7211ft 290kts
08-Mar-18 22:04 29.997965 -95.154901 235 6203ft 258kts
08-Mar-18 22:05 29.996271 -95.235334 293 5070ft 262kts
08-Mar-18 22:06 30.060624 -95.247071 43 3682ft 273kts
08-Mar-18 22:07 30.060340 -95.177647 151 2595ft 223kts
08-Mar-18 22:08 30.019723 -95.207454 241 2165ft 180kts
08-Mar-18 22:09 29.999065 -95.257549 243 1851ft 165kts
08-Mar-18 22:10 29.993169 -95.297124 278 695ft 161kts
08-Mar-18 22:11 29.993448 -95.338605 267 111ft 80kts
08-Mar-18 22:12 29.993484 -95.352548 249 110ft 2kts
08-Mar-18 22:13 29.993448 -95.352622 238 110ft 0kts
08-Mar-18 22:14 29.993448 -95.352622 238 110ft 0kts
08-Mar-18 22:15 29.993448 -95.352622 238 110ft 0kts
08-Mar-18 22:16 29.993448 -95.352622 238 110ft 0kts
08-Mar-18 22:17 29.993448 -95.352622 238 110ft 0kts

Navigation Log

Ident Type
Flight plan parsing failed, navigation log unavailable